VIDP/DEL METAR and TAF weather

Enter ICAO airport designator
Station Type Date Time Source
VIDP METAR 2019/08/24 09:00 UTC NOAA

VIDP 240900Z 10005KT 2200 HZ SCT030 FEW035CB BKN100 32/25 Q1004 NOSIG


Station Type Date Time Source
VIDP Decoded METAR 2019/08/24 09:00 UTC NOAA

Station name not available
Aug 24, 2019 - 05:00 AM EDT / 2019.08.24 0900 UTC
Wind: from the E (100 degrees) at 6 MPH (5 KT):0
Visibility: 1 mile(s):0
Sky conditions: mostly cloudy
Weather: haze; Cumulonimbus clouds observed
Temperature: 89 F (32 C)
Heat index: 100.6 F (38.1 C):1
Dew Point: 77 F (25 C)
Relative Humidity: 66%
Pressure (altimeter): 29.65 in. Hg (1004 hPa)
ob: VIDP 240900Z 10005KT 2200 HZ SCT030 FEW035CB BKN100 32/25 Q1004 NOSIG
cycle: 9

Station Type Date Time Source
VIDP TAF 2019/08/24 06:57 UTC NOAA

TAF VIDP 240500Z 2406/2512 34005KT 3000 HZ -RA SCT035 BKN100
BECMG 2418/2503 13010G25KT 1500 TSRA SCT030 FEW035CB OVC080
BECMG 2506/2508 15005KT 2500 RA BR

Example: see airport list